Time;durP1;ratioP1;P1;durP2;ratioP2;P2;SDS_P1;SDS_P2;PMS_P1;PMS_P2;Temp;Humidity;BMP_temperature;BMP_pressure;BME280_temperature;BME280_humidity;BME280_pressure;Samples;Min_cycle;Max_cycle;Signal;HPM_P1;HPM_P2
2023/08/25 00:00:29;;;;;;;;;;;;;;;;;;2064807;28;20162;-91
2023/08/25 00:01:29;;;;;;;;;;;;;;;;;;2064774;28;19914;-91
2023/08/25 00:02:30;;;;;;;;;;;;;;;;;;2064971;28;19918;-91
2023/08/25 00:03:30;;;;;;;;;;;;;;;;;;2072905;28;19921;-91
2023/08/25 00:04:31;;;;;;;;;;;;;;;;;;2073393;28;19971;-91
2023/08/25 00:05:37;;;;;;;;;;;;;;;;;;2067433;28;20485;-90
2023/08/25 00:06:37;;;;;;;;;;;;;;;;;;2074881;28;19964;-91
2023/08/25 00:07:37;;;;;;;;;;;;;;;;;;2089251;28;19964;-90
2023/08/25 00:08:38;;;;;;;;;;;;;;;;;;2089596;28;19917;-91
2023/08/25 00:09:38;;;;;;;;;;;;;;;;;;2072723;28;19995;-91
2023/08/25 00:10:38;;;;;;;;;;;;;;;;;;2073098;28;20059;-91
2023/08/25 00:11:39;;;;;;;;;;;;;;;;;;2081766;28;19956;-91
2023/08/25 00:12:39;;;;;;;;;;;;;;;;;;2073099;28;20348;-90
2023/08/25 00:13:41;;;;;;;;;;;;;;;;;;2072690;28;19924;-91
2023/08/25 00:14:41;;;;;;;;;;;;;;;;;;2072853;28;19918;-91
2023/08/25 00:15:42;;;;;;;;;;;;;;;;;;2072964;28;19952;-91
2023/08/25 00:16:42;;;;;;;;;;;;;;;;;;2081541;28;19941;-91
2023/08/25 00:17:42;;;;;;;;;;;;;;;;;;2089080;28;19931;-91
2023/08/25 00:18:42;;;;;;;;;;;;;;;;;;2089429;28;20366;-91
2023/08/25 00:19:43;;;;;;;;;;;;;;;;;;2076947;28;19923;-91
2023/08/25 00:20:43;;;;;;;;;;;;;;;;;;2081861;28;20339;-91
2023/08/25 00:21:43;;;;;;;;;;;;;;;;;;2072811;28;20000;-91
2023/08/25 00:22:44;;;;;;;;;;;;;;;;;;2072790;28;19948;-91
2023/08/25 00:23:44;;;;;;;;;;;;;;;;;;2072977;28;20101;-91
2023/08/25 00:24:44;;;;;;;;;;;;;;;;;;2064843;28;19914;-91
2023/08/25 00:25:44;;;;;;;;;;;;;;;;;;2072878;28;19953;-91
2023/08/25 00:26:45;;;;;;;;;;;;;;;;;;2072819;28;19951;-91
2023/08/25 00:27:47;;;;;;;;;;;;;;;;;;2072626;28;19981;-91
2023/08/25 00:28:47;;;;;;;;;;;;;;;;;;2072748;28;19952;-90
2023/08/25 00:29:48;;;;;;;;;;;;;;;;;;2072738;28;20284;-90
2023/08/25 00:30:48;;;;;;;;;;;;;;;;;;2072736;28;19917;-90
2023/08/25 00:31:49;;;;;;;;;;;;;;;;;;2065106;28;20336;-90
2023/08/25 00:32:49;;;;;;;;;;;;;;;;;;2064974;28;19920;-90
2023/08/25 00:33:50;;;;;;;;;;;;;;;;;;2064660;28;20307;-91
2023/08/25 00:34:50;;;;;;;;;;;;;;;;;;2072761;28;19992;-90
2023/08/25 00:35:51;;;;;;;;;;;;;;;;;;2072716;28;19975;-91
2023/08/25 00:36:51;;;;;;;;;;;;;;;;;;2064481;28;19914;-92
2023/08/25 00:37:51;;;;;;;;;;;;;;;;;;2072658;28;19924;-91
2023/08/25 00:38:52;;;;;;;;;;;;;;;;;;2072434;28;20004;-91
2023/08/25 00:39:52;;;;;;;;;;;;;;;;;;2072570;28;19924;-92
2023/08/25 00:40:52;;;;;;;;;;;;;;;;;;2072564;28;19917;-90
2023/08/25 00:41:54;;;;;;;;;;;;;;;;;;2064518;28;20373;-90
2023/08/25 00:42:54;;;;;;;;;;;;;;;;;;2064545;28;19918;-90
2023/08/25 00:43:54;;;;;;;;;;;;;;;;;;2072679;28;20446;-90
2023/08/25 00:44:54;;;;;;;;;;;;;;;;;;2072627;28;19917;-90
2023/08/25 00:45:55;;;;;;;;;;;;;;;;;;2080875;28;19934;-90
2023/08/25 00:46:55;;;;;;;;;;;;;;;;;;2080725;28;19923;-90
2023/08/25 00:47:55;;;;;;;;;;;;;;;;;;2072762;28;20075;-90
2023/08/25 00:48:56;;;;;;;;;;;;;;;;;;2072773;28;19928;-90
2023/08/25 00:49:57;;;;;;;;;;;;;;;;;;2072792;28;19932;-90
2023/08/25 00:50:57;;;;;;;;;;;;;;;;;;2072991;28;19913;-91
2023/08/25 00:51:57;;;;;;;;;;;;;;;;;;2067044;28;19909;-89
2023/08/25 00:52:58;;;;;;;;;;;;;;;;;;2066244;28;20435;-90
2023/08/25 00:53:58;;;;;;;;;;;;;;;;;;2080540;28;20001;-89
2023/08/25 00:54:58;;;;;;;;;;;;;;;;;;2089053;28;20366;-90
2023/08/25 00:56:00;;;;;;;;;;;;;;;;;;2072555;28;19909;-92
2023/08/25 00:57:03;;;;;;;;;;;;;;;;;;2064474;28;19952;-90
2023/08/25 00:58:06;;;;;;;;;;;;;;;;;;2081094;28;19915;-91
2023/08/25 00:59:06;;;;;;;;;;;;;;;;;;2088942;28;19920;-89
2023/08/25 01:00:09;;;;;;;;;;;;;;;;;;2072591;28;20521;-92
2023/08/25 01:01:10;;;;;;;;;;;;;;;;;;2073394;28;20281;-92
2023/08/25 01:02:11;;;;;;;;;;;;;;;;;;2081095;28;19916;-91
2023/08/25 01:03:11;;;;;;;;;;;;;;;;;;2080716;28;19913;-91
2023/08/25 01:04:12;;;;;;;;;;;;;;;;;;2064473;28;20414;-91
2023/08/25 01:05:12;;;;;;;;;;;;;;;;;;2072640;28;19932;-91
2023/08/25 01:06:12;;;;;;;;;;;;;;;;;;2064454;28;19961;-91
2023/08/25 01:07:14;;;;;;;;;;;;;;;;;;2080749;28;19912;-91
2023/08/25 01:08:15;;;;;;;;;;;;;;;;;;2091009;28;19928;-91
2023/08/25 01:09:16;;;;;;;;;;;;;;;;;;2081433;28;20385;-91
2023/08/25 01:10:18;;;;;;;;;;;;;;;;;;2072456;28;20024;-92
2023/08/25 01:11:25;;;;;;;;;;;;;;;;;;2064443;28;19932;-91
2023/08/25 01:12:34;;;;;;;;;;;;;;;;;;2065067;28;20346;-92
2023/08/25 01:13:47;;;;;;;;;;;;;;;;;;2065506;28;19918;-91
2023/08/25 01:14:58;;;;;;;;;;;;;;;;;;2065865;28;20321;-91
2023/08/25 01:15:58;;;;;;;;;;;;;;;;;;2065624;28;20421;-91
2023/08/25 01:16:58;;;;;;;;;;;;;;;;;;2072487;28;19909;-91
2023/08/25 01:18:03;;;;;;;;;;;;;;;;;;2064137;28;19909;-91
2023/08/25 01:19:11;;;;;;;;;;;;;;;;;;2080836;28;19940;-91
2023/08/25 01:20:14;;;;;;;;;;;;;;;;;;2079525;28;19952;-91
2023/08/25 01:21:14;;;;;;;;;;;;;;;;;;2072341;28;19916;-91
2023/08/25 01:22:17;;;;;;;;;;;;;;;;;;2072441;28;20349;-91
2023/08/25 01:23:27;;;;;;;;;;;;;;;;;;2072409;28;20075;-91
2023/08/25 01:24:33;;;;;;;;;;;;;;;;;;2072234;28;20378;-91
2023/08/25 01:25:33;;;;;;;;;;;;;;;;;;2059561;28;20352;-91
2023/08/25 01:26:33;;;;;;;;;;;;;;;;;;2077465;28;19917;-91
2023/08/25 01:27:34;;;;;;;;;;;;;;;;;;2088680;28;20344;-91
2023/08/25 01:28:38;;;;;;;;;;;;;;;;;;2072475;28;19913;-91
2023/08/25 01:29:43;;;;;;;;;;;;;;;;;;2072398;28;19924;-91
2023/08/25 01:30:44;;;;;;;;;;;;;;;;;;2061578;28;20378;-92
2023/08/25 01:31:44;;;;;;;;;;;;;;;;;;2072416;28;19920;-91
2023/08/25 01:32:45;;;;;;;;;;;;;;;;;;2072251;28;20459;-91
2023/08/25 01:33:46;;;;;;;;;;;;;;;;;;2080936;28;19972;-91
2023/08/25 01:34:46;;;;;;;;;;;;;;;;;;2072685;28;20466;-91
2023/08/25 01:35:56;;;;;;;;;;;;;;;;;;2076258;28;20466;-91
2023/08/25 01:36:59;;;;;;;;;;;;;;;;;;2075403;28;20090;-91
2023/08/25 01:38:04;;;;;;;;;;;;;;;;;;2077974;28;19914;-92
2023/08/25 01:39:07;;;;;;;;;;;;;;;;;;2076991;28;19913;-90
2023/08/25 01:40:15;;;;;;;;;;;;;;;;;;2073453;28;20350;-91
2023/08/25 01:41:34;;;;;;;;;;;;;;;;;;2081882;28;20031;-91
2023/08/25 01:42:34;;;;;;;;;;;;;;;;;;2079058;28;19918;-91
2023/08/25 01:43:37;;;;;;;;;;;;;;;;;;2073759;28;19913;-90
2023/08/25 01:44:39;;;;;;;;;;;;;;;;;;2073402;28;19931;-90
2023/08/25 01:45:40;;;;;;;;;;;;;;;;;;2072261;28;20315;-91
2023/08/25 01:46:46;;;;;;;;;;;;;;;;;;2072095;28;19925;-91
2023/08/25 01:47:46;;;;;;;;;;;;;;;;;;1720790;28;10003128;-91
2023/08/25 01:48:49;;;;;;;;;;;;;;;;;;2072300;28;19925;-91
2023/08/25 01:49:50;;;;;;;;;;;;;;;;;;2072186;28;19917;-91
2023/08/25 01:50:50;;;;;;;;;;;;;;;;;;2064181;28;19913;-91
2023/08/25 01:51:51;;;;;;;;;;;;;;;;;;2072420;28;19921;-91
2023/08/25 01:52:51;;;;;;;;;;;;;;;;;;2088730;28;19923;-91
2023/08/25 01:53:53;;;;;;;;;;;;;;;;;;2084237;28;20001;-91
2023/08/25 01:54:53;;;;;;;;;;;;;;;;;;2069646;28;19923;-91
2023/08/25 01:55:53;;;;;;;;;;;;;;;;;;2078577;28;19917;-92
2023/08/25 01:56:54;;;;;;;;;;;;;;;;;;2085049;28;19917;-91
2023/08/25 01:57:54;;;;;;;;;;;;;;;;;;2085215;28;19917;-92
2023/08/25 01:58:54;;;;;;;;;;;;;;;;;;2072181;28;19915;-92
2023/08/25 01:59:54;;;;;;;;;;;;;;;;;;2072292;28;19917;-91
2023/08/25 02:00:55;;;;;;;;;;;;;;;;;;2072381;28;20364;-91
2023/08/25 02:01:55;;;;;;;;;;;;;;;;;;2071990;28;19971;-91
2023/08/25 02:02:56;;;;;;;;;;;;;;;;;;2072265;28;19913;-91
2023/08/25 02:03:56;;;;;;;;;;;;;;;;;;2072186;28;20012;-91
2023/08/25 02:04:57;;;;;;;;;;;;;;;;;;2072236;28;20320;-91
2023/08/25 02:05:57;;;;;;;;;;;;;;;;;;2068262;28;19917;-90
2023/08/25 02:06:57;;;;;;;;;;;;;;;;;;2082192;28;19920;-91
2023/08/25 02:07:57;;;;;;;;;;;;;;;;;;2081433;28;20012;-91
2023/08/25 02:08:58;;;;;;;;;;;;;;;;;;2081166;28;19913;-91
2023/08/25 02:09:58;;;;;;;;;;;;;;;;;;2073869;28;19917;-91
2023/08/25 02:10:59;;;;;;;;;;;;;;;;;;2072654;28;20380;-91
2023/08/25 02:11:59;;;;;;;;;;;;;;;;;;2072004;28;19913;-91
2023/08/25 02:12:59;;;;;;;;;;;;;;;;;;2071703;28;20367;-92
2023/08/25 02:13:59;;;;;;;;;;;;;;;;;;2063652;28;19917;-91
2023/08/25 02:15:00;;;;;;;;;;;;;;;;;;2063871;28;20375;-91
2023/08/25 02:16:00;;;;;;;;;;;;;;;;;;2071814;28;20016;-92
2023/08/25 02:17:00;;;;;;;;;;;;;;;;;;2072019;28;19914;-91
2023/08/25 02:18:01;;;;;;;;;;;;;;;;;;2071910;28;19963;-91
2023/08/25 02:19:01;;;;;;;;;;;;;;;;;;2071940;28;19948;-91
2023/08/25 02:20:04;;;;;;;;;;;;;;;;;;2063302;28;19961;-92
2023/08/25 02:21:04;;;;;;;;;;;;;;;;;;2064092;28;19913;-91
2023/08/25 02:22:04;;;;;;;;;;;;;;;;;;2063810;28;20396;-92
2023/08/25 02:23:05;;;;;;;;;;;;;;;;;;2063902;28;19917;-92
2023/08/25 02:24:05;;;;;;;;;;;;;;;;;;2072954;28;19947;-91
2023/08/25 02:25:06;;;;;;;;;;;;;;;;;;2074506;28;19920;-91
2023/08/25 02:26:06;;;;;;;;;;;;;;;;;;2074514;28;19928;-91
2023/08/25 02:27:06;;;;;;;;;;;;;;;;;;1720362;28;10168963;-91
2023/08/25 02:28:06;;;;;;;;;;;;;;;;;;2071738;28;19921;-91
2023/08/25 02:29:07;;;;;;;;;;;;;;;;;;1714278;28;10341597;-91
2023/08/25 02:30:07;;;;;;;;;;;;;;;;;;2063904;28;19918;-91
2023/08/25 02:31:07;;;;;;;;;;;;;;;;;;2063773;28;19914;-91
2023/08/25 02:32:08;;;;;;;;;;;;;;;;;;2080102;28;19913;-91
2023/08/25 02:33:08;;;;;;;;;;;;;;;;;;2080125;28;19967;-91
2023/08/25 02:34:08;;;;;;;;;;;;;;;;;;2071929;28;19918;-92
2023/08/25 02:35:08;;;;;;;;;;;;;;;;;;2080856;28;19917;-91
2023/08/25 02:36:09;;;;;;;;;;;;;;;;;;2088268;28;20019;-91
2023/08/25 02:37:09;;;;;;;;;;;;;;;;;;2088373;28;20376;-91
2023/08/25 02:38:10;;;;;;;;;;;;;;;;;;2071888;28;19913;-91
2023/08/25 02:39:11;;;;;;;;;;;;;;;;;;2071955;28;19917;-92
2023/08/25 02:40:11;;;;;;;;;;;;;;;;;;2071817;28;20461;-91
2023/08/25 02:41:12;;;;;;;;;;;;;;;;;;2071756;28;19913;-91
2023/08/25 02:42:12;;;;;;;;;;;;;;;;;;2071800;28;19936;-91
2023/08/25 02:43:12;;;;;;;;;;;;;;;;;;2071841;28;19917;-92
2023/08/25 02:44:13;;;;;;;;;;;;;;;;;;2072010;28;19914;-92
2023/08/25 02:45:13;;;;;;;;;;;;;;;;;;2071710;28;20024;-91
2023/08/25 02:46:13;;;;;;;;;;;;;;;;;;2071976;28;19952;-92
2023/08/25 02:47:14;;;;;;;;;;;;;;;;;;2071635;28;20408;-91
2023/08/25 02:48:14;;;;;;;;;;;;;;;;;;2071938;28;20315;-91
2023/08/25 02:49:14;;;;;;;;;;;;;;;;;;2071846;28;19923;-91
2023/08/25 02:50:14;;;;;;;;;;;;;;;;;;2072086;28;19913;-92
2023/08/25 02:51:15;;;;;;;;;;;;;;;;;;2071736;28;19971;-91
2023/08/25 02:52:15;;;;;;;;;;;;;;;;;;2063852;28;19914;-91
2023/08/25 02:53:15;;;;;;;;;;;;;;;;;;2072151;28;19984;-92
2023/08/25 02:54:16;;;;;;;;;;;;;;;;;;2063826;28;19926;-91
2023/08/25 02:55:19;;;;;;;;;;;;;;;;;;2071858;28;19963;-92
2023/08/25 02:56:19;;;;;;;;;;;;;;;;;;2071860;28;20000;-92
2023/08/25 02:57:19;;;;;;;;;;;;;;;;;;2071742;28;19914;-91
2023/08/25 02:58:19;;;;;;;;;;;;;;;;;;2071853;28;20339;-91
2023/08/25 02:59:20;;;;;;;;;;;;;;;;;;2071967;28;20097;-92
2023/08/25 03:00:21;;;;;;;;;;;;;;;;;;2080676;28;19924;-91
2023/08/25 03:01:21;;;;;;;;;;;;;;;;;;2071647;28;19921;-91
2023/08/25 03:02:23;;;;;;;;;;;;;;;;;;2072000;28;19925;-91
2023/08/25 03:03:23;;;;;;;;;;;;;;;;;;2080729;28;19920;-91
2023/08/25 03:04:23;;;;;;;;;;;;;;;;;;2080779;28;19924;-92
2023/08/25 03:05:25;;;;;;;;;;;;;;;;;;2071645;28;19917;-91
2023/08/25 03:06:25;;;;;;;;;;;;;;;;;;2071950;28;20319;-92
2023/08/25 03:07:25;;;;;;;;;;;;;;;;;;2079929;28;20011;-91
2023/08/25 03:08:26;;;;;;;;;;;;;;;;;;2079803;28;19964;-90
2023/08/25 03:09:26;;;;;;;;;;;;;;;;;;2063628;28;19914;-90
2023/08/25 03:10:26;;;;;;;;;;;;;;;;;;2071952;28;20000;-90
2023/08/25 03:11:26;;;;;;;;;;;;;;;;;;2060246;28;19989;-90
2023/08/25 03:12:27;;;;;;;;;;;;;;;;;;2058988;28;20020;-90
2023/08/25 03:13:27;;;;;;;;;;;;;;;;;;2055458;28;20361;-90
2023/08/25 03:14:28;;;;;;;;;;;;;;;;;;2063670;28;19993;-91
2023/08/25 03:15:28;;;;;;;;;;;;;;;;;;2072535;28;19917;-90
2023/08/25 03:16:29;;;;;;;;;;;;;;;;;;2072549;28;19917;-91
2023/08/25 03:17:29;;;;;;;;;;;;;;;;;;2071763;28;19968;-91
2023/08/25 03:18:30;;;;;;;;;;;;;;;;;;2071761;28;19924;-91
2023/08/25 03:19:30;;;;;;;;;;;;;;;;;;2063723;28;20384;-90
2023/08/25 03:20:30;;;;;;;;;;;;;;;;;;2055737;28;20387;-90
2023/08/25 03:21:30;;;;;;;;;;;;;;;;;;2055771;28;19918;-91
2023/08/25 03:22:31;;;;;;;;;;;;;;;;;;2064603;28;19917;-91
2023/08/25 03:23:31;;;;;;;;;;;;;;;;;;2065718;28;19986;-91
2023/08/25 03:24:31;;;;;;;;;;;;;;;;;;2055707;28;19973;-91
2023/08/25 03:25:31;;;;;;;;;;;;;;;;;;2063667;28;19925;-91
2023/08/25 03:26:32;;;;;;;;;;;;;;;;;;2055609;28;20013;-91
2023/08/25 03:27:34;;;;;;;;;;;;;;;;;;2055650;28;20029;-90
2023/08/25 03:28:34;;;;;;;;;;;;;;;;;;2063846;28;20390;-90
2023/08/25 03:29:35;;;;;;;;;;;;;;;;;;2071897;28;19999;-90
2023/08/25 03:30:35;;;;;;;;;;;;;;;;;;2063738;28;19918;-90
2023/08/25 03:31:35;;;;;;;;;;;;;;;;;;2063823;28;19917;-92
2023/08/25 03:32:36;;;;;;;;;;;;;;;;;;2064917;28;20391;-90
2023/08/25 03:33:37;;;;;;;;;;;;;;;;;;2073927;28;19953;-92
2023/08/25 03:34:37;;;;;;;;;;;;;;;;;;2065294;28;20012;-90
2023/08/25 03:35:38;;;;;;;;;;;;;;;;;;2065224;28;20241;-91
2023/08/25 03:36:38;;;;;;;;;;;;;;;;;;2064766;28;19976;-91
2023/08/25 03:37:38;;;;;;;;;;;;;;;;;;2065328;28;20004;-90
2023/08/25 03:38:39;;;;;;;;;;;;;;;;;;2065179;28;19955;-91
2023/08/25 03:39:39;;;;;;;;;;;;;;;;;;2065151;28;19925;-91
2023/08/25 03:40:39;;;;;;;;;;;;;;;;;;2065425;28;19917;-91
2023/08/25 03:41:39;;;;;;;;;;;;;;;;;;2057121;28;19918;-91
2023/08/25 03:42:40;;;;;;;;;;;;;;;;;;2057150;28;20011;-91
2023/08/25 03:43:40;;;;;;;;;;;;;;;;;;2066697;28;19987;-91
2023/08/25 03:44:56;;;;;;;;;;;;;;;;;;2077807;28;20014;-91
2023/08/25 03:46:23;;;;;;;;;;;;;;;;;;2071438;28;19909;-96
2023/08/25 03:47:24;;;;;;;;;;;;;;;;;;2071186;28;19925;-90
2023/08/25 03:48:25;;;;;;;;;;;;;;;;;;2082176;28;19975;-90
2023/08/25 03:49:28;;;;;;;;;;;;;;;;;;2082490;28;19967;-90
2023/08/25 03:50:28;;;;;;;;;;;;;;;;;;2073513;28;19921;-90
2023/08/25 03:51:28;;;;;;;;;;;;;;;;;;2073220;28;19913;-91
2023/08/25 03:52:29;;;;;;;;;;;;;;;;;;2073240;28;19917;-91
2023/08/25 03:53:29;;;;;;;;;;;;;;;;;;2081087;28;20193;-90
2023/08/25 03:54:31;;;;;;;;;;;;;;;;;;2081224;28;19917;-92
2023/08/25 03:55:32;;;;;;;;;;;;;;;;;;2065283;28;19920;-92
2023/08/25 03:56:32;;;;;;;;;;;;;;;;;;2073000;28;19924;-92
2023/08/25 03:57:33;;;;;;;;;;;;;;;;;;2073854;28;19914;-91
2023/08/25 03:58:33;;;;;;;;;;;;;;;;;;2076621;28;19924;-91
2023/08/25 03:59:33;;;;;;;;;;;;;;;;;;2087739;28;19919;-91
2023/08/25 04:00:34;;;;;;;;;;;;;;;;;;2081477;28;20048;-91
2023/08/25 04:01:34;;;;;;;;;;;;;;;;;;2073495;28;19917;-89
2023/08/25 04:02:34;;;;;;;;;;;;;;;;;;1725130;28;10063936;-91
2023/08/25 04:03:35;;;;;;;;;;;;;;;;;;2073231;28;19948;-91
2023/08/25 04:04:35;;;;;;;;;;;;;;;;;;2060117;28;20275;-91
2023/08/25 04:05:35;;;;;;;;;;;;;;;;;;2063339;28;19971;-92
2023/08/25 04:06:35;;;;;;;;;;;;;;;;;;2060305;28;19918;-91
2023/08/25 04:07:36;;;;;;;;;;;;;;;;;;2062791;28;20099;-92
2023/08/25 04:08:36;;;;;;;;;;;;;;;;;;2073721;28;19971;-91
2023/08/25 04:09:36;;;;;;;;;;;;;;;;;;2073698;28;20484;-91
2023/08/25 04:10:37;;;;;;;;;;;;;;;;;;2064660;28;20000;-91
2023/08/25 04:11:37;;;;;;;;;;;;;;;;;;2065297;28;20004;-92
2023/08/25 04:12:37;;;;;;;;;;;;;;;;;;2073482;28;20016;-91
2023/08/25 04:13:38;;;;;;;;;;;;;;;;;;2081489;28;20443;-91
2023/08/25 04:14:39;;;;;;;;;;;;;;;;;;2080216;28;20527;-91
2023/08/25 04:15:39;;;;;;;;;;;;;;;;;;2089923;28;19952;-91
2023/08/25 04:16:39;;;;;;;;;;;;;;;;;;2081494;28;20237;-91
2023/08/25 04:17:40;;;;;;;;;;;;;;;;;;2065134;28;19921;-91
2023/08/25 04:18:40;;;;;;;;;;;;;;;;;;2073289;28;20292;-91
2023/08/25 04:19:40;;;;;;;;;;;;;;;;;;2073444;28;19913;-92
2023/08/25 04:20:40;;;;;;;;;;;;;;;;;;2073312;28;19917;-91
2023/08/25 04:21:41;;;;;;;;;;;;;;;;;;2081661;28;19909;-91
2023/08/25 04:22:41;;;;;;;;;;;;;;;;;;2084010;28;19987;-91
2023/08/25 04:23:41;;;;;;;;;;;;;;;;;;2083809;28;19965;-90
2023/08/25 04:24:42;;;;;;;;;;;;;;;;;;2076527;28;19922;-91
2023/08/25 04:25:42;;;;;;;;;;;;;;;;;;2072902;28;19913;-91
2023/08/25 04:26:43;;;;;;;;;;;;;;;;;;2073157;28;19917;-91
2023/08/25 04:27:43;;;;;;;;;;;;;;;;;;2073198;28;19913;-91
2023/08/25 04:28:44;;;;;;;;;;;;;;;;;;2081963;28;19924;-91
2023/08/25 04:29:44;;;;;;;;;;;;;;;;;;2082050;28;19916;-91
2023/08/25 04:30:44;;;;;;;;;;;;;;;;;;2081915;28;20265;-91
2023/08/25 04:31:44;;;;;;;;;;;;;;;;;;2081916;28;19913;-91
2023/08/25 04:32:45;;;;;;;;;;;;;;;;;;2081752;28;19929;-92
2023/08/25 04:33:45;;;;;;;;;;;;;;;;;;2072830;28;19951;-92
2023/08/25 04:34:45;;;;;;;;;;;;;;;;;;2064829;28;19917;-90
2023/08/25 04:35:45;;;;;;;;;;;;;;;;;;2072994;28;19952;-90
2023/08/25 04:36:46;;;;;;;;;;;;;;;;;;2081887;28;20004;-91
2023/08/25 04:37:50;;;;;;;;;;;;;;;;;;2072872;28;19913;-91
2023/08/25 04:38:50;;;;;;;;;;;;;;;;;;2073515;28;20225;-91
2023/08/25 04:39:55;;;;;;;;;;;;;;;;;;2089390;28;19913;-91
2023/08/25 04:40:55;;;;;;;;;;;;;;;;;;2080587;28;19967;-90
2023/08/25 04:41:55;;;;;;;;;;;;;;;;;;2073120;28;20008;-91
2023/08/25 04:42:56;;;;;;;;;;;;;;;;;;2072553;28;19929;-90
2023/08/25 04:43:56;;;;;;;;;;;;;;;;;;2074481;28;19925;-90
2023/08/25 04:44:56;;;;;;;;;;;;;;;;;;2077470;28;20019;-90
2023/08/25 04:45:56;;;;;;;;;;;;;;;;;;2075649;28;19925;-91
2023/08/25 04:46:57;;;;;;;;;;;;;;;;;;2081574;28;20007;-91
2023/08/25 04:47:57;;;;;;;;;;;;;;;;;;2073067;28;19949;-91
2023/08/25 04:48:57;;;;;;;;;;;;;;;;;;2072518;28;19948;-89
2023/08/25 04:50:02;;;;;;;;;;;;;;;;;;2072889;28;20403;-91
2023/08/25 04:51:02;;;;;;;;;;;;;;;;;;2072940;28;20012;-91
2023/08/25 04:52:02;;;;;;;;;;;;;;;;;;2064702;28;20353;-90
2023/08/25 04:53:07;;;;;;;;;;;;;;;;;;822582;28;10021011;-91
2023/08/25 04:54:07;;;;;;;;;;;;;;;;;;2073173;28;20238;-91
2023/08/25 04:55:10;;;;;;;;;;;;;;;;;;2072838;28;19967;-91
2023/08/25 04:56:11;;;;;;;;;;;;;;;;;;2072851;28;20102;-91
2023/08/25 04:57:11;;;;;;;;;;;;;;;;;;2064610;28;19914;-91
2023/08/25 04:58:12;;;;;;;;;;;;;;;;;;2064725;28;19916;-91
2023/08/25 04:59:12;;;;;;;;;;;;;;;;;;2064592;28;19988;-91
2023/08/25 05:00:12;;;;;;;;;;;;;;;;;;2072588;28;19954;-91
2023/08/25 05:01:14;;;;;;;;;;;;;;;;;;2072762;28;19909;-91
2023/08/25 05:02:14;;;;;;;;;;;;;;;;;;2072826;28;19909;-91
2023/08/25 05:03:14;;;;;;;;;;;;;;;;;;2072557;28;20006;-90
2023/08/25 05:04:15;;;;;;;;;;;;;;;;;;2064672;28;19910;-91
2023/08/25 05:05:17;;;;;;;;;;;;;;;;;;2064521;28;19910;-92
2023/08/25 05:06:17;;;;;;;;;;;;;;;;;;2072813;28;20355;-91
2023/08/25 05:07:17;;;;;;;;;;;;;;;;;;2072504;28;19921;-91
2023/08/25 05:08:20;;;;;;;;;;;;;;;;;;2073093;28;20328;-91
2023/08/25 05:09:21;;;;;;;;;;;;;;;;;;2084319;28;20292;-95
2023/08/25 05:10:22;;;;;;;;;;;;;;;;;;2073817;28;19928;-95
2023/08/25 05:11:22;;;;;;;;;;;;;;;;;;2073311;28;19917;-95
2023/08/25 05:12:22;;;;;;;;;;;;;;;;;;2073815;28;19917;-96
2023/08/25 05:13:22;;;;;;;;;;;;;;;;;;2073891;28;19953;-95
2023/08/25 05:14:23;;;;;;;;;;;;;;;;;;2082602;28;19928;-95
2023/08/25 05:15:23;;;;;;;;;;;;;;;;;;2074081;28;20376;-95
2023/08/25 05:16:23;;;;;;;;;;;;;;;;;;2066558;28;19964;-94
2023/08/25 05:17:24;;;;;;;;;;;;;;;;;;2073101;28;20005;-96
2023/08/25 05:18:24;;;;;;;;;;;;;;;;;;2079164;28;19948;-95
2023/08/25 05:19:25;;;;;;;;;;;;;;;;;;2081222;28;19924;-96
2023/08/25 05:20:26;;;;;;;;;;;;;;;;;;2081782;28;19917;-96
2023/08/25 05:21:28;;;;;;;;;;;;;;;;;;2090916;28;19912;-95
2023/08/25 05:22:29;;;;;;;;;;;;;;;;;;2083149;28;19917;-93
2023/08/25 05:23:29;;;;;;;;;;;;;;;;;;2075777;28;19913;-96
2023/08/25 05:24:29;;;;;;;;;;;;;;;;;;2076366;28;19940;-95
2023/08/25 05:25:30;;;;;;;;;;;;;;;;;;2083955;28;19996;-96
2023/08/25 05:26:30;;;;;;;;;;;;;;;;;;2083235;28;20445;-96
2023/08/25 05:27:30;;;;;;;;;;;;;;;;;;2067409;28;19920;-94
2023/08/25 05:28:30;;;;;;;;;;;;;;;;;;2067903;28;20012;-95
2023/08/25 05:29:31;;;;;;;;;;;;;;;;;;2065946;28;19914;-95
2023/08/25 05:30:31;;;;;;;;;;;;;;;;;;2069832;28;19928;-96
2023/08/25 05:31:31;;;;;;;;;;;;;;;;;;2079079;28;20337;-95
2023/08/25 05:32:31;;;;;;;;;;;;;;;;;;2066981;28;20016;-95
2023/08/25 05:33:32;;;;;;;;;;;;;;;;;;2065639;28;20353;-94
2023/08/25 05:36:25;;;;;;;;;;;;;;;;;;2081835;28;19929;-96
2023/08/25 05:37:25;;;;;;;;;;;;;;;;;;2085462;28;19921;-94
2023/08/25 05:38:25;;;;;;;;;;;;;;;;;;2088427;28;19913;-95
2023/08/25 05:39:26;;;;;;;;;;;;;;;;;;2082858;28;19923;-95
2023/08/25 05:40:26;;;;;;;;;;;;;;;;;;2078715;28;19980;-96
2023/08/25 05:42:57;;;;;;;;;;;;;;;;;;2082631;28;19917;-94
2023/08/25 05:43:57;;;;;;;;;;;;;;;;;;2074360;28;20317;-96
2023/08/25 05:45:00;;;;;;;;;;;;;;;;;;2073726;28;19917;-96
2023/08/25 05:46:00;;;;;;;;;;;;;;;;;;2082653;28;19968;-95
2023/08/25 05:47:00;;;;;;;;;;;;;;;;;;2073508;28;19914;-95
2023/08/25 05:48:01;;;;;;;;;;;;;;;;;;2065314;28;19910;-95
2023/08/25 05:49:01;;;;;;;;;;;;;;;;;;2073432;28;19932;-95
2023/08/25 05:50:02;;;;;;;;;;;;;;;;;;2073293;28;20381;-96
2023/08/25 05:51:02;;;;;;;;;;;;;;;;;;2065629;28;19909;-95
2023/08/25 05:52:03;;;;;;;;;;;;;;;;;;2081190;28;19915;-95
2023/08/25 05:53:03;;;;;;;;;;;;;;;;;;2082518;28;19913;-95
2023/08/25 05:54:03;;;;;;;;;;;;;;;;;;2073317;28;19945;-96
2023/08/25 05:55:04;;;;;;;;;;;;;;;;;;2064512;28;19909;-94
2023/08/25 05:56:04;;;;;;;;;;;;;;;;;;2065210;28;19911;-96
2023/08/25 05:57:05;;;;;;;;;;;;;;;;;;2081486;28;19963;-95
2023/08/25 05:58:05;;;;;;;;;;;;;;;;;;2081436;28;20336;-95
2023/08/25 05:59:06;;;;;;;;;;;;;;;;;;2073557;28;19909;-96
2023/08/25 06:00:06;;;;;;;;;;;;;;;;;;2089922;28;20015;-95
2023/08/25 06:01:07;;;;;;;;;;;;;;;;;;2081834;28;19925;-95
2023/08/25 06:02:08;;;;;;;;;;;;;;;;;;2073496;28;19913;-96
2023/08/25 06:03:08;;;;;;;;;;;;;;;;;;2073427;28;19905;-95
2023/08/25 06:04:09;;;;;;;;;;;;;;;;;;2073333;28;20250;-94
2023/08/25 06:05:09;;;;;;;;;;;;;;;;;;2082251;28;19905;-95
2023/08/25 06:06:09;;;;;;;;;;;;;;;;;;2073396;28;20460;-95
2023/08/25 06:07:10;;;;;;;;;;;;;;;;;;2065157;28;20068;-96
2023/08/25 06:08:11;;;;;;;;;;;;;;;;;;2073286;28;20428;-96
2023/08/25 06:09:12;;;;;;;;;;;;;;;;;;2065003;28;19924;-95
2023/08/25 06:10:12;;;;;;;;;;;;;;;;;;2065203;28;20345;-95
2023/08/25 06:11:13;;;;;;;;;;;;;;;;;;2065095;28;19906;-94
2023/08/25 06:12:14;;;;;;;;;;;;;;;;;;2073444;28;19909;-96
2023/08/25 06:13:14;;;;;;;;;;;;;;;;;;2074322;28;19941;-96
2023/08/25 06:14:15;;;;;;;;;;;;;;;;;;2066511;28;20261;-96
2023/08/25 06:15:15;;;;;;;;;;;;;;;;;;2073084;28;19909;-96
2023/08/25 06:16:15;;;;;;;;;;;;;;;;;;2065073;28;19910;-95
2023/08/25 06:17:15;;;;;;;;;;;;;;;;;;2075595;28;20000;-95
2023/08/25 06:18:16;;;;;;;;;;;;;;;;;;2070261;28;19910;-96
2023/08/25 06:19:16;;;;;;;;;;;;;;;;;;2075876;28;19921;-96
2023/08/25 06:20:16;;;;;;;;;;;;;;;;;;2073276;28;19926;-96
2023/08/25 06:21:17;;;;;;;;;;;;;;;;;;2073664;28;20032;-95
2023/08/25 06:22:17;;;;;;;;;;;;;;;;;;2082467;28;19917;-95
2023/08/25 06:23:17;;;;;;;;;;;;;;;;;;2073284;28;19925;-96
2023/08/25 06:24:18;;;;;;;;;;;;;;;;;;2065063;28;20348;-94
2023/08/25 06:25:18;;;;;;;;;;;;;;;;;;2081311;28;19917;-95
2023/08/25 06:26:18;;;;;;;;;;;;;;;;;;2081368;28;19967;-94
2023/08/25 06:27:19;;;;;;;;;;;;;;;;;;2065386;28;20020;-95
2023/08/25 06:28:19;;;;;;;;;;;;;;;;;;2072985;28;19945;-95
2023/08/25 06:29:19;;;;;;;;;;;;;;;;;;2065785;28;19917;-96
2023/08/25 06:30:20;;;;;;;;;;;;;;;;;;2066407;28;19969;-95
2023/08/25 06:31:20;;;;;;;;;;;;;;;;;;2065440;28;19917;-96
2023/08/25 06:32:21;;;;;;;;;;;;;;;;;;2074299;28;19918;-95
2023/08/25 06:33:21;;;;;;;;;;;;;;;;;;2075071;28;19918;-96
2023/08/25 06:34:21;;;;;;;;;;;;;;;;;;2065156;28;19929;-96
2023/08/25 06:35:22;;;;;;;;;;;;;;;;;;2073171;28;19917;-96
2023/08/25 06:36:22;;;;;;;;;;;;;;;;;;2065043;28;19944;-96
2023/08/25 06:37:22;;;;;;;;;;;;;;;;;;2075215;28;19988;-96
2023/08/25 06:38:27;;;;;;;;;;;;;;;;;;2083555;28;19931;-96
2023/08/25 06:39:28;;;;;;;;;;;;;;;;;;2083830;28;19921;-96
2023/08/25 06:40:28;;;;;;;;;;;;;;;;;;2075626;28;19911;-96
2023/08/25 06:41:28;;;;;;;;;;;;;;;;;;2073790;28;19917;-95
2023/08/25 06:42:28;;;;;;;;;;;;;;;;;;2082371;28;19978;-95
2023/08/25 06:43:29;;;;;;;;;;;;;;;;;;2073064;28;19945;-96
2023/08/25 06:44:29;;;;;;;;;;;;;;;;;;2064715;28;20324;-94
2023/08/25 06:45:30;;;;;;;;;;;;;;;;;;2072964;28;19944;-96
2023/08/25 06:46:30;;;;;;;;;;;;;;;;;;2065014;28;20012;-96
2023/08/25 06:47:31;;;;;;;;;;;;;;;;;;2073156;28;19921;-96
2023/08/25 06:48:31;;;;;;;;;;;;;;;;;;2064760;28;20328;-96
2023/08/25 06:49:32;;;;;;;;;;;;;;;;;;2073142;28;19925;-94
2023/08/25 06:50:32;;;;;;;;;;;;;;;;;;2072893;28;19975;-96
2023/08/25 06:51:32;;;;;;;;;;;;;;;;;;2064708;28;19921;-96
2023/08/25 06:52:33;;;;;;;;;;;;;;;;;;2081230;28;19924;-96
2023/08/25 06:53:33;;;;;;;;;;;;;;;;;;2081250;28;19921;-96
2023/08/25 06:54:33;;;;;;;;;;;;;;;;;;2065004;28;19922;-96
2023/08/25 06:55:34;;;;;;;;;;;;;;;;;;2081254;28;20431;-94
2023/08/25 06:56:35;;;;;;;;;;;;;;;;;;2081146;28;20265;-96
2023/08/25 06:57:37;;;;;;;;;;;;;;;;;;2064838;28;19990;-95
2023/08/25 07:27:43;;;;;;;;;;;;;;;;;;2080926;23;19926;-95